createdAt,value
2023-03-27T00:02:09.376Z,18.85
2023-03-27T00:04:36.389Z,12.80
2023-03-27T00:07:03.867Z,17.08
2023-03-27T00:09:32.274Z,14.40
2023-03-27T00:12:01.122Z,13.25
2023-03-27T00:14:28.703Z,19.48
2023-03-27T00:16:57.498Z,16.98
2023-03-27T00:19:25.218Z,20.08
2023-03-27T00:21:53.484Z,18.63
2023-03-27T00:24:20.506Z,18.25
2023-03-27T00:26:47.662Z,19.67
2023-03-27T00:29:14.755Z,17.60
2023-03-27T00:31:42.172Z,24.67
2023-03-27T00:34:11.013Z,21.33
2023-03-27T00:36:38.003Z,17.23
2023-03-27T00:39:05.299Z,18.67
2023-03-27T00:41:34.070Z,18.20
2023-03-27T00:44:01.169Z,21.15
2023-03-27T00:46:44.999Z,18.67
2023-03-27T00:49:15.334Z,20.40
2023-03-27T00:54:12.229Z,16.25
2023-03-27T00:56:39.681Z,15.88
2023-03-27T00:59:12.686Z,17.30
2023-03-27T01:01:40.585Z,17.20
2023-03-27T01:04:09.273Z,15.32
2023-03-27T01:06:38.096Z,16.73
2023-03-27T01:09:05.649Z,12.32
2023-03-27T01:12:07.139Z,19.15
2023-03-27T01:14:44.502Z,15.63
2023-03-27T01:17:39.147Z,17.38
2023-03-27T01:20:32.642Z,20.73
2023-03-27T01:23:02.492Z,15.82
2023-03-27T01:26:00.151Z,16.63
2023-03-27T01:28:37.316Z,15.98
2023-03-27T01:31:42.022Z,15.35
2023-03-27T01:34:29.466Z,18.77
2023-03-27T01:37:14.985Z,13.88
2023-03-27T01:40:05.256Z,14.65
2023-03-27T01:42:39.563Z,15.52
2023-03-27T01:45:34.985Z,12.95
2023-03-27T01:48:12.038Z,9.57
2023-03-27T01:50:51.890Z,15.40
2023-03-27T01:53:34.455Z,12.07
2023-03-27T01:56:08.724Z,9.52
2023-03-27T01:58:46.201Z,12.85
2023-03-27T02:01:18.848Z,13.77
2023-03-27T02:03:50.429Z,15.75
2023-03-27T02:06:42.068Z,10.60
2023-03-27T02:09:23.070Z,9.38
2023-03-27T02:11:56.717Z,12.45
2023-03-27T02:14:28.738Z,12.98
2023-03-27T02:17:00.432Z,11.52
2023-03-27T02:19:35.236Z,15.10
2023-03-27T02:22:02.526Z,11.18
2023-03-27T02:24:43.596Z,13.70
2023-03-27T02:27:22.495Z,17.45
2023-03-27T02:30:08.576Z,9.23
2023-03-27T02:32:49.121Z,10.52
2023-03-27T02:36:00.558Z,7.90
2023-03-27T02:38:47.991Z,10.32
2023-03-27T02:41:48.214Z,6.72
2023-03-27T02:44:51.719Z,9.05
2023-03-27T02:47:48.843Z,9.32
2023-03-27T02:50:25.745Z,8.43
2023-03-27T02:53:01.296Z,8.63
2023-03-27T02:55:40.355Z,7.82
2023-03-27T02:58:17.314Z,8.02
2023-03-27T03:01:09.563Z,8.30
2023-03-27T03:04:03.709Z,6.75
2023-03-27T03:06:54.995Z,7.65
2023-03-27T03:09:22.423Z,8.63
2023-03-27T03:11:52.777Z,6.90
2023-03-27T03:14:25.068Z,10.05
2023-03-27T03:16:52.244Z,6.88
2023-03-27T03:19:19.235Z,7.75
2023-03-27T03:21:47.088Z,8.25
2023-03-27T03:24:14.013Z,6.38
2023-03-27T03:26:41.012Z,8.48
2023-03-27T03:29:08.012Z,4.80
2023-03-27T03:34:14.937Z,6.07
2023-03-27T03:36:43.195Z,6.70
2023-03-27T03:39:12.765Z,4.78
2023-03-27T03:41:40.049Z,6.25
2023-03-27T03:44:07.794Z,6.32
2023-03-27T03:46:34.900Z,5.70
2023-03-27T03:49:01.983Z,7.15
2023-03-27T03:51:29.125Z,6.05
2023-03-27T03:53:56.130Z,6.13
2023-03-27T03:56:24.324Z,6.00
2023-03-27T03:58:52.715Z,5.15
2023-03-27T04:01:20.818Z,6.82
2023-03-27T04:03:52.128Z,7.90
2023-03-27T04:06:25.703Z,3.95
2023-03-27T04:08:58.435Z,4.85
2023-03-27T04:11:38.531Z,5.50
2023-03-27T04:14:24.039Z,3.08
2023-03-27T04:16:53.597Z,4.90
2023-03-27T04:19:25.945Z,2.97
2023-03-27T04:22:02.653Z,4.45
2023-03-27T04:24:33.533Z,6.22
2023-03-27T04:27:03.398Z,4.75
2023-03-27T04:29:48.344Z,4.00
2023-03-27T04:32:34.693Z,3.10
2023-03-27T04:35:21.527Z,2.95
2023-03-27T04:37:56.418Z,4.55
2023-03-27T04:40:46.219Z,1.75
2023-03-27T04:43:13.649Z,4.50
2023-03-27T04:45:40.615Z,4.13
2023-03-27T04:48:07.894Z,4.88
2023-03-27T04:50:36.128Z,2.92
2023-03-27T04:53:03.472Z,3.40
2023-03-27T04:55:40.659Z,5.90
2023-03-27T04:58:09.116Z,4.70
2023-03-27T05:00:38.685Z,4.80
2023-03-27T05:03:06.464Z,5.00
2023-03-27T05:05:42.333Z,5.13
2023-03-27T05:08:09.972Z,6.78
2023-03-27T05:10:37.017Z,8.23
2023-03-27T05:13:04.374Z,5.97
2023-03-27T05:15:33.719Z,5.63
2023-03-27T05:18:02.969Z,6.80
2023-03-27T05:20:31.618Z,5.97
2023-03-27T05:23:04.789Z,7.07
2023-03-27T05:25:33.183Z,7.53
2023-03-27T05:28:03.370Z,7.30
2023-03-27T05:30:33.016Z,6.80
2023-03-27T05:33:23.640Z,7.63
2023-03-27T05:35:52.921Z,7.65
2023-03-27T05:38:20.728Z,7.32
2023-03-27T05:41:10.119Z,7.90
2023-03-27T05:43:41.865Z,6.55
2023-03-27T05:46:09.080Z,5.38
2023-03-27T05:48:38.763Z,6.68
2023-03-27T05:51:06.691Z,5.28
2023-03-27T05:53:36.408Z,5.22
2023-03-27T05:56:27.156Z,3.22
2023-03-27T05:58:57.868Z,6.07
2023-03-27T06:01:26.326Z,6.18
2023-03-27T06:03:56.419Z,5.90
2023-03-27T06:07:02.649Z,5.70
2023-03-27T06:09:31.694Z,8.95
2023-03-27T06:12:17.369Z,4.75
2023-03-27T06:14:45.289Z,6.38
2023-03-27T06:17:27.616Z,4.07
2023-03-27T06:20:15.688Z,4.07
2023-03-27T06:22:55.785Z,6.10
2023-03-27T06:25:32.388Z,5.43
2023-03-27T06:28:00.347Z,3.67
2023-03-27T06:30:29.519Z,5.65
2023-03-27T06:33:21.707Z,5.45
2023-03-27T06:35:52.958Z,5.75
2023-03-27T06:38:32.150Z,5.45
2023-03-27T06:41:01.009Z,5.10
2023-03-27T06:43:54.247Z,4.10
2023-03-27T06:46:45.175Z,4.70
2023-03-27T06:49:16.500Z,5.20
2023-03-27T06:51:43.557Z,4.13
2023-03-27T06:54:13.604Z,4.90
2023-03-27T06:56:45.595Z,2.90
2023-03-27T06:59:17.741Z,3.83
2023-03-27T07:01:48.099Z,6.45
2023-03-27T07:04:33.613Z,5.22
2023-03-27T07:07:29.974Z,2.60
2023-03-27T07:09:57.300Z,10.68
2023-03-27T07:12:27.222Z,5.43
2023-03-27T07:14:54.841Z,5.88
2023-03-27T07:17:31.894Z,4.28
2023-03-27T07:20:06.511Z,3.47
2023-03-27T07:22:34.076Z,2.55
2023-03-27T07:25:07.059Z,3.47
2023-03-27T07:27:39.671Z,3.20
2023-03-27T07:30:09.284Z,2.50
2023-03-27T07:32:37.916Z,2.28
2023-03-27T07:35:08.701Z,1.98
2023-03-27T07:37:56.375Z,2.35
2023-03-27T07:40:43.621Z,2.55
2023-03-27T07:43:28.989Z,3.38
2023-03-27T07:45:58.016Z,2.05
2023-03-27T07:48:28.058Z,1.75
2023-03-27T07:51:10.761Z,1.42
2023-03-27T07:53:41.726Z,1.17
2023-03-27T07:56:23.684Z,1.60
2023-03-27T07:59:08.540Z,2.20
2023-03-27T08:01:35.898Z,1.98
2023-03-27T08:04:04.060Z,3.13
2023-03-27T08:06:33.770Z,1.52
2023-03-27T08:09:02.833Z,1.08
2023-03-27T08:11:31.250Z,0.93
2023-03-27T08:13:59.809Z,1.52
2023-03-27T08:16:30.225Z,2.47
2023-03-27T08:19:00.932Z,1.75
2023-03-27T08:21:32.002Z,1.58
2023-03-27T08:24:01.528Z,1.20
2023-03-27T08:26:49.481Z,1.50
2023-03-27T08:29:16.800Z,1.77
2023-03-27T08:31:47.243Z,2.95
2023-03-27T08:34:15.799Z,2.38
2023-03-27T08:36:49.119Z,2.03
2023-03-27T08:39:17.438Z,1.42
2023-03-27T08:41:56.491Z,2.38
2023-03-27T08:44:39.111Z,1.73
2023-03-27T08:47:19.628Z,2.75
2023-03-27T08:49:57.712Z,3.42
2023-03-27T08:52:36.233Z,1.45
2023-03-27T08:55:12.398Z,2.60
2023-03-27T08:57:50.368Z,3.55
2023-03-27T09:00:27.397Z,2.30
2023-03-27T09:03:23.254Z,3.60
2023-03-27T09:06:06.675Z,4.10
2023-03-27T09:08:53.318Z,2.05
2023-03-27T09:11:46.493Z,2.88
2023-03-27T09:14:30.557Z,2.28
2023-03-27T09:17:01.174Z,2.45
2023-03-27T09:19:44.325Z,2.80
2023-03-27T09:22:23.127Z,1.48
2023-03-27T09:25:15.401Z,2.60
2023-03-27T09:28:01.848Z,1.90
2023-03-27T09:30:53.193Z,3.97
2023-03-27T09:33:28.450Z,3.60
2023-03-27T09:35:58.512Z,2.15
2023-03-27T09:41:06.919Z,2.67
2023-03-27T09:43:49.509Z,2.70
2023-03-27T09:46:20.399Z,1.80
2023-03-27T09:49:03.187Z,1.45
2023-03-27T09:51:54.751Z,1.85
2023-03-27T09:54:53.831Z,3.15
2023-03-27T09:57:35.771Z,1.63
2023-03-27T10:00:25.350Z,1.35
2023-03-27T10:03:04.010Z,2.08
2023-03-27T10:05:32.984Z,2.47
2023-03-27T10:08:02.151Z,1.80
2023-03-27T10:10:57.915Z,3.40
2023-03-27T10:13:37.374Z,3.25
2023-03-27T10:16:06.202Z,2.10
2023-03-27T10:18:50.158Z,1.38
2023-03-27T10:21:44.453Z,1.88
2023-03-27T10:24:26.588Z,2.83
2023-03-27T10:27:21.907Z,1.80
2023-03-27T10:30:35.513Z,1.92
2023-03-27T10:33:37.708Z,2.05
2023-03-27T10:36:18.959Z,2.05
2023-03-27T10:38:56.545Z,2.30
2023-03-27T10:41:48.103Z,2.17
2023-03-27T10:44:18.564Z,2.38
2023-03-27T10:46:53.552Z,1.52
2023-03-27T10:49:44.743Z,0.90
2023-03-27T10:52:40.936Z,2.13
2023-03-27T10:55:52.038Z,1.92
2023-03-27T10:58:23.793Z,1.25
2023-03-27T11:00:59.053Z,0.93
2023-03-27T11:03:30.254Z,2.78
2023-03-27T11:06:07.857Z,2.17
2023-03-27T11:08:54.845Z,1.40
2023-03-27T11:11:32.856Z,1.20
2023-03-27T11:14:05.891Z,2.60
2023-03-27T11:16:39.423Z,1.90
2023-03-27T11:19:52.749Z,1.92
2023-03-27T11:23:05.774Z,0.88
2023-03-27T11:25:47.302Z,0.90
2023-03-27T11:28:39.896Z,1.40
2023-03-27T11:31:46.487Z,1.50
2023-03-27T11:34:34.692Z,1.48
2023-03-27T11:37:30.831Z,2.08
2023-03-27T11:40:10.090Z,2.70
2023-03-27T11:42:42.753Z,1.25
2023-03-27T11:45:16.083Z,1.92
2023-03-27T11:48:25.436Z,1.73
2023-03-27T11:50:58.795Z,1.92
2023-03-27T11:53:29.188Z,1.92
2023-03-27T11:56:10.835Z,3.35
2023-03-27T11:59:07.945Z,1.80
2023-03-27T12:01:51.393Z,1.08
2023-03-27T12:04:37.272Z,1.65
2023-03-27T12:07:42.198Z,1.63
2023-03-27T12:10:25.332Z,1.38
2023-03-27T12:13:40.615Z,1.83
2023-03-27T12:16:25.856Z,2.05
2023-03-27T12:19:28.434Z,1.98
2023-03-27T12:22:24.804Z,1.48
2023-03-27T12:25:17.547Z,2.33
2023-03-27T12:28:04.948Z,1.35
2023-03-27T12:31:13.581Z,1.25
2023-03-27T12:33:59.888Z,2.08
2023-03-27T12:36:31.166Z,1.67
2023-03-27T12:38:59.446Z,1.00
2023-03-27T12:41:33.739Z,1.55
2023-03-27T12:44:13.196Z,3.00
2023-03-27T12:47:21.719Z,1.50
2023-03-27T12:50:01.334Z,1.52
2023-03-27T12:52:35.134Z,3.22
2023-03-27T12:55:18.620Z,1.75
2023-03-27T12:57:58.676Z,1.75
2023-03-27T13:00:53.757Z,2.22
2023-03-27T13:06:12.858Z,1.67
2023-03-27T13:08:58.460Z,1.55
2023-03-27T13:14:49.139Z,1.85
2023-03-27T13:17:57.100Z,1.83
2023-03-27T13:20:50.124Z,2.92
2023-03-27T13:23:39.159Z,1.95
2023-03-27T13:26:21.627Z,2.28
2023-03-27T13:28:54.608Z,2.53
2023-03-27T13:31:52.054Z,2.53
2023-03-27T13:34:41.810Z,1.63
2023-03-27T13:37:14.439Z,1.83
2023-03-27T13:40:02.323Z,1.45
2023-03-27T13:42:40.348Z,1.50
2023-03-27T13:45:08.222Z,1.02
2023-03-27T13:47:58.921Z,2.22
2023-03-27T13:50:55.285Z,2.10
2023-03-27T13:53:52.117Z,1.23
2023-03-27T13:56:41.010Z,3.40
2023-03-27T13:59:38.883Z,1.80
2023-03-27T14:02:29.439Z,2.33
2023-03-27T14:05:22.835Z,2.13
2023-03-27T14:08:14.492Z,2.13
2023-03-27T14:11:21.915Z,2.03
2023-03-27T14:14:05.002Z,2.45
2023-03-27T14:16:54.673Z,1.27
2023-03-27T14:20:06.975Z,1.65
2023-03-27T14:22:49.000Z,2.45
2023-03-27T14:25:26.166Z,2.95
2023-03-27T14:28:00.359Z,1.77
2023-03-27T14:30:40.742Z,1.73
2023-03-27T14:33:31.067Z,2.38
2023-03-27T14:36:05.708Z,3.65
2023-03-27T14:38:37.426Z,2.47
2023-03-27T14:41:18.310Z,3.67
2023-03-27T14:43:52.452Z,3.22
2023-03-27T14:46:22.624Z,1.95
2023-03-27T14:48:58.339Z,4.90
2023-03-27T14:51:42.266Z,3.00
2023-03-27T14:54:26.969Z,2.15
2023-03-27T14:57:00.838Z,2.13
2023-03-27T14:59:38.004Z,2.13
2023-03-27T15:02:26.699Z,3.15
2023-03-27T15:05:03.570Z,1.65
2023-03-27T15:07:36.310Z,1.90
2023-03-27T15:10:23.765Z,3.28
2023-03-27T15:13:12.115Z,6.93
2023-03-27T15:15:50.306Z,1.88
2023-03-27T15:18:20.754Z,2.40
2023-03-27T15:20:50.630Z,1.38
2023-03-27T15:23:36.965Z,2.65
2023-03-27T15:26:27.464Z,2.22
2023-03-27T15:29:08.300Z,2.50
2023-03-27T15:31:36.797Z,1.67
2023-03-27T15:34:12.769Z,2.72
2023-03-27T15:36:43.258Z,4.15
2023-03-27T15:39:21.393Z,5.57
2023-03-27T15:41:56.059Z,4.05
2023-03-27T15:44:26.045Z,3.08
2023-03-27T15:46:54.834Z,3.42
2023-03-27T15:49:27.911Z,3.03
2023-03-27T15:51:57.036Z,3.42
2023-03-27T15:54:31.323Z,3.45
2023-03-27T15:57:11.555Z,2.30
2023-03-27T15:59:53.056Z,2.75
2023-03-27T16:02:24.705Z,4.57
2023-03-27T16:04:55.850Z,2.70
2023-03-27T16:07:46.552Z,2.70
2023-03-27T16:10:15.577Z,1.67
2023-03-27T16:13:03.074Z,1.90
2023-03-27T16:15:41.652Z,2.33
2023-03-27T16:18:39.514Z,2.35
2023-03-27T16:21:13.526Z,3.15
2023-03-27T16:23:41.107Z,1.77
2023-03-27T16:26:14.306Z,1.20
2023-03-27T16:28:41.808Z,2.40
2023-03-27T16:31:14.394Z,1.77
2023-03-27T16:33:45.494Z,2.13
2023-03-27T16:36:14.093Z,3.38
2023-03-27T16:38:42.287Z,2.13
2023-03-27T16:41:14.750Z,3.08
2023-03-27T16:43:42.887Z,2.25
2023-03-27T16:46:22.582Z,1.85
2023-03-27T16:48:53.784Z,2.05
2023-03-27T16:51:22.623Z,1.67
2023-03-27T16:53:50.260Z,2.20
2023-03-27T16:56:17.426Z,3.00
2023-03-27T16:58:44.882Z,1.17
2023-03-27T17:01:12.108Z,2.20
2023-03-27T17:03:41.368Z,1.92
2023-03-27T17:06:11.566Z,2.27
2023-03-27T17:08:38.921Z,1.90
2023-03-27T17:11:09.226Z,3.33
2023-03-27T17:16:04.595Z,8.13
2023-03-27T17:18:34.284Z,4.60
2023-03-27T17:21:01.461Z,5.15
2023-03-27T17:23:28.736Z,4.00
2023-03-27T17:25:59.895Z,5.70
2023-03-27T17:28:27.056Z,4.82
2023-03-27T17:31:04.747Z,6.38
2023-03-27T17:33:33.677Z,3.65
2023-03-27T17:36:01.248Z,5.28
2023-03-27T17:38:28.789Z,5.03
2023-03-27T17:40:55.850Z,5.70
2023-03-27T17:43:22.883Z,3.97
2023-03-27T17:45:51.247Z,6.18
2023-03-27T17:48:18.665Z,5.70
2023-03-27T17:51:01.209Z,5.20
2023-03-27T17:53:36.696Z,5.28
2023-03-27T17:56:04.464Z,4.30
2023-03-27T17:58:34.270Z,7.90
2023-03-27T18:01:11.796Z,13.70
2023-03-27T18:03:39.163Z,12.05
2023-03-27T18:06:06.804Z,17.80
2023-03-27T18:08:34.402Z,12.73
2023-03-27T18:11:01.616Z,19.27
2023-03-27T18:13:30.639Z,11.25
2023-03-27T18:15:58.731Z,15.45
2023-03-27T18:18:26.446Z,12.45
2023-03-27T18:20:54.986Z,10.90
2023-03-27T18:23:22.369Z,11.95
2023-03-27T18:25:49.548Z,14.57
2023-03-27T18:28:16.755Z,7.97
2023-03-27T18:30:44.431Z,7.60
2023-03-27T18:33:11.842Z,5.75
2023-03-27T18:35:39.375Z,5.78
2023-03-27T18:38:06.713Z,8.38
2023-03-27T18:40:36.758Z,17.38
2023-03-27T18:43:03.876Z,9.27
2023-03-27T18:45:31.147Z,10.65
2023-03-27T18:47:58.362Z,11.13
2023-03-27T18:50:25.697Z,12.20
2023-03-27T18:52:53.708Z,10.23
2023-03-27T18:55:21.228Z,9.05
2023-03-27T18:57:48.504Z,15.75
2023-03-27T19:00:18.900Z,12.60
2023-03-27T19:02:48.114Z,12.50
2023-03-27T19:05:18.061Z,11.38
2023-03-27T19:07:46.238Z,10.23
2023-03-27T19:10:14.621Z,9.35
2023-03-27T19:12:45.659Z,10.40
2023-03-27T19:15:33.218Z,9.30
2023-03-27T19:18:03.862Z,7.25
2023-03-27T19:20:49.877Z,10.32
2023-03-27T19:23:37.535Z,12.90
2023-03-27T19:26:09.999Z,22.40
2023-03-27T19:28:40.938Z,21.90
2023-03-27T19:31:09.895Z,28.73
2023-03-27T19:33:38.075Z,24.13
2023-03-27T19:36:06.746Z,24.95
2023-03-27T19:38:34.226Z,21.08
2023-03-27T19:41:02.485Z,26.50
2023-03-27T19:43:32.599Z,22.00
2023-03-27T19:46:14.721Z,17.35
2023-03-27T19:48:44.692Z,15.48
2023-03-27T19:51:23.140Z,15.77
2023-03-27T19:53:52.496Z,13.98
2023-03-27T19:56:22.623Z,13.10
2023-03-27T19:58:50.051Z,11.75
2023-03-27T20:01:20.032Z,12.73
2023-03-27T20:03:47.652Z,13.75
2023-03-27T20:06:18.553Z,13.40
2023-03-27T20:08:46.146Z,9.55
2023-03-27T20:11:15.868Z,12.75
2023-03-27T20:13:55.453Z,15.57
2023-03-27T20:16:26.480Z,13.32
2023-03-27T20:19:06.470Z,13.27
2023-03-27T20:21:37.891Z,14.60
2023-03-27T20:24:10.212Z,14.45
2023-03-27T20:26:42.269Z,39.35
2023-03-27T20:29:18.904Z,35.72
2023-03-27T20:31:46.829Z,20.33
2023-03-27T20:34:14.635Z,18.40
2023-03-27T20:36:43.540Z,15.52
2023-03-27T20:39:22.853Z,16.67
2023-03-27T20:41:51.371Z,16.40
2023-03-27T20:44:18.419Z,14.15
2023-03-27T20:46:52.210Z,14.60
2023-03-27T20:51:57.854Z,16.30
2023-03-27T20:56:52.114Z,15.75
2023-03-27T20:59:19.249Z,12.90
2023-03-27T21:01:46.630Z,15.98
2023-03-27T21:04:15.456Z,14.38
2023-03-27T21:06:43.097Z,12.60
2023-03-27T21:09:14.060Z,15.50
2023-03-27T21:11:41.611Z,12.52
2023-03-27T21:14:08.667Z,13.38
2023-03-27T21:16:35.986Z,11.73
2023-03-27T21:19:03.177Z,11.93
2023-03-27T21:21:34.671Z,12.15
2023-03-27T21:24:01.837Z,14.77
2023-03-27T21:26:28.794Z,10.13
2023-03-27T21:28:56.467Z,11.55
2023-03-27T21:31:23.665Z,10.13
2023-03-27T21:33:50.802Z,10.45
2023-03-27T21:36:17.955Z,11.43
2023-03-27T21:38:45.389Z,11.75
2023-03-27T21:41:15.667Z,13.38
2023-03-27T21:43:42.889Z,11.00
2023-03-27T21:46:10.862Z,12.68
2023-03-27T21:48:40.632Z,11.65
2023-03-27T21:51:09.043Z,10.18
2023-03-27T21:53:36.351Z,10.65
2023-03-27T21:56:04.331Z,9.73
2023-03-27T21:58:31.366Z,9.77
2023-03-27T22:00:59.177Z,10.25
2023-03-27T22:03:28.670Z,11.05
2023-03-27T22:06:10.142Z,12.95
2023-03-27T22:08:38.515Z,27.83
2023-03-27T22:11:05.853Z,37.70
2023-03-27T22:13:36.306Z,15.45
2023-03-27T22:16:15.877Z,11.77
2023-03-27T22:18:43.987Z,11.68
2023-03-27T22:21:19.921Z,12.75
2023-03-27T22:23:49.107Z,13.38
2023-03-27T22:26:17.012Z,38.92
2023-03-27T22:28:44.402Z,64.75
2023-03-27T22:31:11.704Z,87.35
2023-03-27T22:33:39.192Z,50.92
2023-03-27T22:36:10.719Z,17.73
2023-03-27T22:38:38.198Z,38.15
2023-03-27T22:41:07.293Z,11.13
2023-03-27T22:43:34.787Z,15.60
2023-03-27T22:46:11.104Z,55.22
2023-03-27T22:48:38.717Z,39.42
2023-03-27T22:51:06.276Z,25.10
2023-03-27T22:53:33.721Z,12.13
2023-03-27T22:56:03.199Z,13.70
2023-03-27T22:58:31.477Z,14.32
2023-03-27T23:00:59.090Z,35.25
2023-03-27T23:03:28.002Z,40.33
2023-03-27T23:05:55.623Z,34.28
2023-03-27T23:08:27.381Z,54.88
2023-03-27T23:10:57.445Z,68.72
2023-03-27T23:13:26.554Z,28.90
2023-03-27T23:15:54.224Z,20.75
2023-03-27T23:18:24.745Z,19.73
2023-03-27T23:21:00.887Z,26.15
2023-03-27T23:23:29.385Z,43.10
2023-03-27T23:26:00.221Z,62.47
2023-03-27T23:28:31.453Z,76.53
2023-03-27T23:31:01.424Z,45.70
2023-03-27T23:33:32.881Z,49.35
2023-03-27T23:36:06.744Z,36.22
2023-03-27T23:38:34.248Z,18.75
2023-03-27T23:41:02.680Z,24.88
2023-03-27T23:43:31.730Z,27.33
2023-03-27T23:45:59.751Z,22.27
2023-03-27T23:48:30.898Z,35.85
2023-03-27T23:50:58.461Z,48.42
2023-03-27T23:53:27.679Z,32.58
2023-03-27T23:55:56.416Z,37.88
2023-03-27T23:58:24.997Z,22.23
